Time;durP1;ratioP1;P1;durP2;ratioP2;P2;SDS_P1;SDS_P2;PMS_P1;PMS_P2;Temp;Humidity;BMP_temperature;BMP_pressure;BME280_temperature;BME280_humidity;BME280_pressure;Samples;Min_cycle;Max_cycle;Signal;HPM_P1;HPM_P2
2022/04/14 00:01:21;;;;;;;23.43;10.43;;;;;;;-145.18;100.00;60484.78;5020750;28;20080;-70
2022/04/14 00:03:47;;;;;;;24.57;10.63;;;;;;;-145.18;100.00;60484.78;5018198;28;20181;-71
2022/04/14 00:06:12;;;;;;;23.50;10.73;;;;;;;-145.18;100.00;60484.78;5016717;28;20578;-70
2022/04/14 00:08:37;;;;;;;22.50;10.37;;;;;;;-145.18;100.00;60484.78;5020064;28;20034;-71
2022/04/14 00:11:03;;;;;;;21.00;10.53;;;;;;;-145.18;100.00;60484.78;5021178;28;20065;-71
2022/04/14 00:13:28;;;;;;;21.87;10.97;;;;;;;-145.18;100.00;60484.78;5022795;28;20082;-71
2022/04/14 00:15:54;;;;;;;24.67;11.03;;;;;;;-145.18;100.00;60484.78;5023713;28;20029;-71
2022/04/14 00:18:19;;;;;;;27.13;11.30;;;;;;;-145.18;100.00;60484.78;5019104;28;20036;-71
2022/04/14 00:20:45;;;;;;;27.97;11.77;;;;;;;-145.18;100.00;60484.78;5025771;28;20102;-71
2022/04/14 00:23:10;;;;;;;24.30;11.43;;;;;;;-145.18;100.00;60484.78;5021448;28;20103;-71
2022/04/14 00:25:36;;;;;;;23.23;11.47;;;;;;;-145.18;100.00;60484.78;5028212;28;20037;-71
2022/04/14 00:28:01;;;;;;;24.53;12.00;;;;;;;-145.18;100.00;60484.78;5028274;28;20037;-71
2022/04/14 00:30:27;;;;;;;29.77;12.80;;;;;;;-145.18;100.00;60484.78;5026212;28;20026;-71
2022/04/14 00:32:52;;;;;;;26.20;12.03;;;;;;;-145.18;100.00;60484.78;5015324;28;20068;-71
2022/04/14 00:35:18;;;;;;;23.40;12.33;;;;;;;-145.18;100.00;60484.78;5026552;28;20025;-71
2022/04/14 00:37:43;;;;;;;30.40;13.83;;;;;;;-145.18;100.00;60484.78;5031521;28;20033;-71
2022/04/14 00:40:09;;;;;;;30.27;13.10;;;;;;;-145.18;100.00;60484.78;5026053;28;20038;-71
2022/04/14 00:42:35;;;;;;;33.63;14.33;;;;;;;-145.18;100.00;60484.78;5029838;28;20452;-71
2022/04/14 00:45:00;;;;;;;33.27;14.30;;;;;;;-145.18;100.00;60484.78;5018127;28;20091;-71
2022/04/14 00:47:26;;;;;;;33.70;15.57;;;;;;;-145.18;100.00;60484.78;5018243;28;20071;-71
2022/04/14 00:49:51;;;;;;;30.63;14.27;;;;;;;-145.18;100.00;60484.78;5023005;28;20037;-71
2022/04/14 00:52:17;;;;;;;32.33;14.80;;;;;;;-145.18;100.00;60484.78;5029637;28;20029;-71
2022/04/14 00:54:42;;;;;;;29.80;14.23;;;;;;;-145.18;100.00;60484.78;5020399;28;20162;-71
2022/04/14 00:57:08;;;;;;;30.13;14.13;;;;;;;-145.18;100.00;60484.78;5012672;28;20018;-71
2022/04/14 00:59:34;;;;;;;26.73;13.13;;;;;;;-145.18;100.00;60484.78;5025378;28;20601;-71
2022/04/14 01:02:00;;;;;;;30.20;14.20;;;;;;;-145.18;100.00;60484.78;5023550;28;20025;-71
2022/04/14 01:04:26;;;;;;;34.40;14.57;;;;;;;-145.18;100.00;60484.78;5029330;28;20075;-71
2022/04/14 01:06:52;;;;;;;36.53;15.13;;;;;;;-145.18;100.00;60484.78;5028716;28;20043;-71
2022/04/14 01:09:19;;;;;;;32.37;14.30;;;;;;;-145.18;100.00;60484.78;5018970;28;20033;-71
2022/04/14 01:11:52;;;;;;;29.83;14.37;;;;;;;-145.18;100.00;60484.78;5028950;28;20120;-71
2022/04/14 01:14:19;;;;;;;31.67;14.43;;;;;;;-145.18;100.00;60484.78;5030240;28;20427;-71
2022/04/14 01:16:45;;;;;;;28.33;14.37;;;;;;;-145.18;100.00;60484.78;5028586;28;20033;-71
2022/04/14 01:19:10;;;;;;;29.37;14.23;;;;;;;-145.18;100.00;60484.78;5025070;28;20125;-71
2022/04/14 01:21:38;;;;;;;30.30;14.50;;;;;;;-145.18;100.00;60484.78;5027772;28;20029;-71
2022/04/14 01:24:03;;;;;;;32.03;15.37;;;;;;;-145.18;100.00;60484.78;5027027;28;20445;-71
2022/04/14 01:26:29;;;;;;;30.67;15.50;;;;;;;-145.18;100.00;60484.78;5020130;28;20084;-71
2022/04/14 01:28:56;;;;;;;34.63;16.10;;;;;;;-145.18;100.00;60484.78;5022809;28;20381;-71
2022/04/14 01:31:22;;;;;;;34.53;15.67;;;;;;;-145.18;100.00;60484.78;5030369;28;20032;-71
2022/04/14 01:33:47;;;;;;;31.33;15.43;;;;;;;-145.18;100.00;60484.78;5026008;28;20118;-71
2022/04/14 01:36:12;;;;;;;30.17;14.97;;;;;;;-145.18;100.00;60484.78;5021711;28;20132;-71
2022/04/14 01:38:38;;;;;;;32.23;15.07;;;;;;;-145.18;100.00;60484.78;5026174;28;20091;-71
2022/04/14 01:41:04;;;;;;;34.47;15.93;;;;;;;-145.18;100.00;60484.78;5024594;28;20108;-71
2022/04/14 01:43:29;;;;;;;34.87;16.03;;;;;;;-145.18;100.00;60484.78;5024502;28;20038;-71
2022/04/14 01:45:54;;;;;;;35.03;17.27;;;;;;;-145.18;100.00;60484.78;5029955;28;20271;-71
2022/04/14 01:48:20;;;;;;;37.27;16.60;;;;;;;-145.18;100.00;60484.78;5029753;28;20433;-70
2022/04/14 01:50:45;;;;;;;38.33;17.53;;;;;;;-145.18;100.00;60484.78;5027497;28;20056;-71
2022/04/14 01:53:11;;;;;;;34.73;17.43;;;;;;;-145.18;100.00;60484.78;5026491;28;20428;-71
2022/04/14 01:55:36;;;;;;;34.53;16.90;;;;;;;-145.18;100.00;60484.78;5020466;28;20034;-71
2022/04/14 01:58:01;;;;;;;31.20;15.63;;;;;;;-145.18;100.00;60484.78;5003087;28;20112;-71
2022/04/14 02:00:27;;;;;;;33.63;16.13;;;;;;;-145.18;100.00;60484.78;5023553;28;20119;-71
2022/04/14 02:02:52;;;;;;;31.10;16.63;;;;;;;-145.18;100.00;60484.78;5021929;28;20018;-71
2022/04/14 02:05:18;;;;;;;32.73;15.73;;;;;;;-145.18;100.00;60484.78;5023288;28;20025;-70
2022/04/14 02:07:43;;;;;;;29.43;14.90;;;;;;;-145.18;100.00;60484.78;5024231;28;20032;-71
2022/04/14 02:10:08;;;;;;;32.10;14.97;;;;;;;-145.18;100.00;60484.78;5024981;28;20539;-71
2022/04/14 02:12:34;;;;;;;32.37;15.17;;;;;;;-145.18;100.00;60484.78;5024344;28;20120;-71
2022/04/14 02:15:00;;;;;;;32.23;15.13;;;;;;;-145.18;100.00;60484.78;5025703;28;20025;-71
2022/04/14 02:17:25;;;;;;;32.10;14.97;;;;;;;-145.18;100.00;60484.78;5024514;28;20068;-71
2022/04/14 02:19:51;;;;;;;32.87;15.10;;;;;;;-145.18;100.00;60484.78;5023202;28;20029;-71
2022/04/14 02:22:16;;;;;;;34.13;14.83;;;;;;;-145.18;100.00;60484.78;5004467;28;20029;-71
2022/04/14 02:24:41;;;;;;;35.83;14.93;;;;;;;-145.18;100.00;60484.78;5022932;28;20055;-71
2022/04/14 02:27:07;;;;;;;29.57;14.60;;;;;;;-145.18;100.00;60484.78;5026345;28;20497;-71
2022/04/14 02:29:32;;;;;;;32.20;14.37;;;;;;;-145.18;100.00;60484.78;5027078;28;20053;-71
2022/04/14 02:31:58;;;;;;;30.50;14.07;;;;;;;-145.18;100.00;60484.78;5021131;28;20017;-70
2022/04/14 02:34:26;;;;;;;30.47;14.07;;;;;;;-145.18;100.00;60484.78;5024076;28;20148;-70
2022/04/14 02:36:52;;;;;;;34.63;14.37;;;;;;;-145.18;100.00;60484.78;5025656;28;20079;-70
2022/04/14 02:39:18;;;;;;;26.63;13.13;;;;;;;-145.18;100.00;60484.78;5023739;28;20477;-70
2022/04/14 02:41:45;;;;;;;29.97;14.03;;;;;;;-145.18;100.00;60484.78;5002115;28;20458;-70
2022/04/14 02:44:11;;;;;;;28.30;13.83;;;;;;;-145.18;100.00;60484.78;5023249;28;20120;-70
2022/04/14 02:46:36;;;;;;;35.50;15.37;;;;;;;-145.18;100.00;60484.78;5019812;28;20535;-69
2022/04/14 02:49:01;;;;;;;32.40;14.73;;;;;;;-145.18;100.00;60484.78;5019729;28;20083;-70
2022/04/14 02:51:27;;;;;;;36.13;15.00;;;;;;;-145.18;100.00;60484.78;5019571;28;20033;-70
2022/04/14 02:53:52;;;;;;;35.07;15.33;;;;;;;-145.18;100.00;60484.78;5021568;28;20025;-70
2022/04/14 02:56:17;;;;;;;39.00;15.87;;;;;;;-145.18;100.00;60484.78;5020002;28;20029;-70
2022/04/14 02:58:43;;;;;;;35.40;15.40;;;;;;;-145.18;100.00;60484.78;5026703;28;20032;-70
2022/04/14 03:01:08;;;;;;;34.17;16.20;;;;;;;-145.18;100.00;60484.78;5028785;28;20478;-70
2022/04/14 03:03:33;;;;;;;36.37;15.93;;;;;;;-145.18;100.00;60484.78;5023265;28;20029;-70
2022/04/14 03:05:59;;;;;;;39.03;15.97;;;;;;;-145.18;100.00;60484.78;5022947;28;20133;-69
2022/04/14 03:08:24;;;;;;;41.00;17.53;;;;;;;-145.18;100.00;60484.78;5019801;28;20041;-70
2022/04/14 03:10:50;;;;;;;41.47;16.80;;;;;;;-145.18;100.00;60484.78;5027170;28;20087;-71
2022/04/14 03:13:16;;;;;;;41.83;16.53;;;;;;;-145.18;100.00;60484.78;5025617;28;20497;-70
2022/04/14 03:15:42;;;;;;;47.53;17.37;;;;;;;-145.18;100.00;60484.78;5027923;28;20018;-70
2022/04/14 03:18:07;;;;;;;46.00;18.33;;;;;;;-145.18;100.00;60484.78;5024942;28;20033;-70
2022/04/14 03:20:32;;;;;;;45.60;18.27;;;;;;;-145.18;100.00;60484.78;5015856;28;20120;-70
2022/04/14 03:22:58;;;;;;;50.00;20.33;;;;;;;-145.18;100.00;60484.78;5023161;28;20032;-70
2022/04/14 03:25:24;;;;;;;50.33;20.03;;;;;;;-145.18;100.00;60484.78;5015890;28;20033;-70
2022/04/14 03:27:49;;;;;;;52.33;20.07;;;;;;;-145.18;100.00;60484.78;4999037;28;20033;-70
2022/04/14 03:30:15;;;;;;;53.23;21.70;;;;;;;-145.18;100.00;60484.78;5025756;28;20041;-70
2022/04/14 03:32:45;;;;;;;53.13;21.50;;;;;;;-145.18;100.00;60484.78;5026783;28;20535;-70
2022/04/14 03:35:11;;;;;;;53.03;20.60;;;;;;;-145.18;100.00;60484.78;5021440;28;20033;-70
2022/04/14 03:37:37;;;;;;;64.63;22.97;;;;;;;-145.18;100.00;60484.78;5016304;28;20026;-70
2022/04/14 03:40:04;;;;;;;62.70;22.30;;;;;;;-145.18;100.00;60484.78;5021859;28;20100;-70
2022/04/14 03:42:30;;;;;;;63.83;23.87;;;;;;;-145.18;100.00;60484.78;5016886;28;20088;-70
2022/04/14 03:44:56;;;;;;;67.13;23.93;;;;;;;-145.18;100.00;60484.78;5023575;28;20420;-70
2022/04/14 03:47:21;;;;;;;57.73;21.60;;;;;;;-145.18;100.00;60484.78;5026325;28;20083;-70
2022/04/14 03:49:46;;;;;;;62.13;23.80;;;;;;;-145.18;100.00;60484.78;5024739;28;20022;-69
2022/04/14 03:52:12;;;;;;;63.97;24.23;;;;;;;-145.18;100.00;60484.78;5015493;28;20111;-70
2022/04/14 03:54:37;;;;;;;54.07;21.90;;;;;;;-145.18;100.00;60484.78;5024664;28;20031;-70
2022/04/14 03:57:04;;;;;;;55.00;22.43;;;;;;;-145.18;100.00;60484.78;5033500;28;20358;-70
2022/04/14 03:59:29;;;;;;;57.47;22.40;;;;;;;-145.18;100.00;60484.78;5024431;28;20030;-70
2022/04/14 04:01:54;;;;;;;53.43;20.30;;;;;;;-145.18;100.00;60484.78;5028326;28;20045;-70
2022/04/14 04:04:20;;;;;;;82.63;21.93;;;;;;;-145.18;100.00;60484.78;5032670;28;20025;-70
2022/04/14 04:06:45;;;;;;;56.20;20.83;;;;;;;-145.18;100.00;60484.78;5027847;28;20420;-70
2022/04/14 04:09:11;;;;;;;49.37;19.83;;;;;;;-145.18;100.00;60484.78;5030054;28;20053;-70
2022/04/14 04:11:37;;;;;;;58.20;21.97;;;;;;;-145.18;100.00;60484.78;5031092;28;20029;-70
2022/04/14 04:14:02;;;;;;;65.03;24.27;;;;;;;-145.18;100.00;60484.78;5029662;28;20064;-71
2022/04/14 04:16:27;;;;;;;66.53;24.77;;;;;;;-145.18;100.00;60484.78;5028933;28;20034;-70
2022/04/14 04:18:53;;;;;;;82.00;26.50;;;;;;;-145.18;100.00;60484.78;5026698;28;20102;-70
2022/04/14 04:21:18;;;;;;;75.67;28.30;;;;;;;-145.18;100.00;60484.78;5027406;28;20053;-70
2022/04/14 04:23:43;;;;;;;93.40;30.47;;;;;;;-145.18;100.00;60484.78;5028419;28;20021;-70
2022/04/14 04:26:09;;;;;;;95.30;31.57;;;;;;;-145.18;100.00;60484.78;5028840;28;20505;-70
2022/04/14 04:28:34;;;;;;;92.50;31.23;;;;;;;-145.18;100.00;60484.78;5029314;28;21685;-71
2022/04/14 04:30:59;;;;;;;109.77;33.90;;;;;;;-145.18;100.00;60484.78;5025546;28;20102;-70
2022/04/14 04:33:25;;;;;;;95.33;32.53;;;;;;;-145.18;100.00;60484.78;5024899;28;20088;-70
2022/04/14 04:35:51;;;;;;;114.70;36.03;;;;;;;-145.18;100.00;60484.78;5025725;28;20480;-70
2022/04/14 04:38:16;;;;;;;113.33;34.27;;;;;;;-145.18;100.00;60484.78;5025738;28;20025;-70
2022/04/14 04:40:42;;;;;;;122.87;36.67;;;;;;;-145.18;100.00;60484.78;5025398;28;20072;-70
2022/04/14 04:43:09;;;;;;;132.50;37.97;;;;;;;-145.18;100.00;60484.78;5025564;28;20047;-70
2022/04/14 04:45:35;;;;;;;135.13;40.50;;;;;;;-145.18;100.00;60484.78;5024810;28;20084;-71
2022/04/14 04:48:02;;;;;;;132.63;39.87;;;;;;;-145.18;100.00;60484.78;5029029;28;20655;-70
2022/04/14 04:50:28;;;;;;;133.17;39.33;;;;;;;-145.18;100.00;60484.78;5028976;28;20507;-70
2022/04/14 04:52:53;;;;;;;123.00;38.30;;;;;;;-145.18;100.00;60484.78;5027666;28;20114;-70
2022/04/14 04:55:19;;;;;;;126.33;36.73;;;;;;;-145.18;100.00;60484.78;5025564;28;20078;-69
2022/04/14 04:57:44;;;;;;;135.03;37.97;;;;;;;-145.18;100.00;60484.78;5029391;28;20025;-70
2022/04/14 05:00:11;;;;;;;156.00;42.23;;;;;;;-145.18;100.00;60484.78;5024416;28;20051;-70
2022/04/14 05:02:36;;;;;;;155.33;44.20;;;;;;;-145.18;100.00;60484.78;5024772;28;20028;-70
2022/04/14 05:05:01;;;;;;;163.33;45.20;;;;;;;-145.18;100.00;60484.78;5026508;28;20481;-70
2022/04/14 05:07:27;;;;;;;177.70;45.87;;;;;;;-145.18;100.00;60484.78;5031586;28;20037;-70
2022/04/14 05:09:52;;;;;;;176.87;47.30;;;;;;;-145.18;100.00;60484.78;5028995;28;20079;-70
2022/04/14 05:12:17;;;;;;;177.27;46.53;;;;;;;-145.18;100.00;60484.78;5028055;28;20053;-70
2022/04/14 05:14:43;;;;;;;187.73;48.23;;;;;;;-145.18;100.00;60484.78;5032211;28;20497;-70
2022/04/14 05:17:08;;;;;;;182.40;50.30;;;;;;;-145.18;100.00;60484.78;5009930;28;20477;-70
2022/04/14 05:19:33;;;;;;;198.63;52.43;;;;;;;-145.18;100.00;60484.78;5025104;28;20025;-70
2022/04/14 05:22:01;;;;;;;207.37;52.47;;;;;;;-145.18;100.00;60484.78;5026580;28;20146;-70
2022/04/14 05:24:29;;;;;;;201.60;53.10;;;;;;;-145.18;100.00;60484.78;5023990;28;20104;-70
2022/04/14 05:26:54;;;;;;;204.20;52.33;;;;;;;-145.18;100.00;60484.78;5029185;28;20033;-70
2022/04/14 05:29:19;;;;;;;199.53;52.63;;;;;;;-145.18;100.00;60484.78;5030668;28;20035;-70
2022/04/14 05:31:45;;;;;;;200.53;51.10;;;;;;;-145.18;100.00;60484.78;5026079;28;20021;-70
2022/04/14 05:34:10;;;;;;;203.33;52.70;;;;;;;-145.18;100.00;60484.78;5027320;28;20030;-70
2022/04/14 05:36:35;;;;;;;195.43;52.27;;;;;;;-145.18;100.00;60484.78;5027180;28;20033;-70
2022/04/14 05:39:01;;;;;;;205.27;51.03;;;;;;;-145.18;100.00;60484.78;5023494;28;20955;-70
2022/04/14 05:41:26;;;;;;;191.03;50.27;;;;;;;-145.18;100.00;60484.78;5024488;28;20036;-69
2022/04/14 05:43:51;;;;;;;186.27;51.33;;;;;;;-145.18;100.00;60484.78;5023621;28;20056;-70
2022/04/14 05:46:17;;;;;;;186.10;51.77;;;;;;;-145.18;100.00;60484.78;5005387;28;20033;-70
2022/04/14 05:48:42;;;;;;;187.67;52.13;;;;;;;-145.18;100.00;60484.78;5027148;28;20022;-70
2022/04/14 05:51:07;;;;;;;185.30;50.43;;;;;;;-145.18;100.00;60484.78;5026828;28;20021;-70
2022/04/14 05:53:33;;;;;;;189.00;50.67;;;;;;;-145.18;100.00;60484.78;5024794;28;20869;-70
2022/04/14 05:55:58;;;;;;;174.17;48.20;;;;;;;-145.18;100.00;60484.78;5028292;28;20025;-70
2022/04/14 05:58:23;;;;;;;170.80;47.90;;;;;;;-145.18;100.00;60484.78;5028004;28;20481;-70
2022/04/14 06:00:49;;;;;;;185.63;49.57;;;;;;;-145.18;100.00;60484.78;5021320;28;20148;-70
2022/04/14 06:03:14;;;;;;;169.87;48.90;;;;;;;-145.18;100.00;60484.78;5023543;28;20041;-70
2022/04/14 06:05:40;;;;;;;169.93;48.03;;;;;;;-145.18;100.00;60484.78;5027644;28;20518;-70
2022/04/14 06:08:05;;;;;;;161.20;47.07;;;;;;;-145.18;100.00;60484.78;5028604;28;20026;-70
2022/04/14 06:10:31;;;;;;;154.20;45.53;;;;;;;-145.18;100.00;60484.78;5028663;28;20104;-70
2022/04/14 06:12:57;;;;;;;153.53;44.90;;;;;;;-145.18;100.00;60484.78;5030070;28;20025;-70
2022/04/14 06:15:23;;;;;;;147.83;44.80;;;;;;;-145.18;100.00;60484.78;5029660;28;20025;-70
2022/04/14 06:17:49;;;;;;;142.73;45.13;;;;;;;-145.18;100.00;60484.78;5024582;28;20032;-69
2022/04/14 06:20:15;;;;;;;142.50;44.83;;;;;;;-145.18;100.00;60484.78;5022198;28;20504;-70
2022/04/14 06:22:42;;;;;;;131.00;42.53;;;;;;;-145.18;100.00;60484.78;5030222;28;20037;-70
2022/04/14 06:25:17;;;;;;;125.97;41.03;;;;;;;-145.18;100.00;60484.78;5023688;28;20056;-70
2022/04/14 06:27:46;;;;;;;121.77;40.73;;;;;;;-145.18;100.00;60484.78;5022858;28;20022;-70
2022/04/14 06:30:17;;;;;;;116.77;39.57;;;;;;;-145.18;100.00;60484.78;5024126;28;20049;-70
2022/04/14 06:32:54;;;;;;;115.20;41.03;;;;;;;-145.18;100.00;60484.78;5018946;28;20036;-70
2022/04/14 06:35:19;;;;;;;120.37;40.63;;;;;;;-145.18;100.00;60484.78;5002617;28;20129;-70
2022/04/14 06:37:44;;;;;;;108.57;39.03;;;;;;;-145.18;100.00;60484.78;5024231;28;20033;-70
2022/04/14 06:40:10;;;;;;;94.07;38.30;;;;;;;-145.18;100.00;60484.78;5008577;28;20033;-70
2022/04/14 06:42:36;;;;;;;88.27;35.93;;;;;;;-145.18;100.00;60484.78;5027822;28;20029;-70
2022/04/14 06:45:01;;;;;;;72.03;32.93;;;;;;;-145.18;100.00;60484.78;5021694;28;20029;-70
2022/04/14 06:47:27;;;;;;;57.87;29.73;;;;;;;-145.18;100.00;60484.78;5025555;28;20416;-71
2022/04/14 06:49:53;;;;;;;57.57;30.03;;;;;;;-145.18;100.00;60484.78;5026143;28;20037;-71
2022/04/14 06:52:20;;;;;;;47.73;27.20;;;;;;;-145.18;100.00;60484.78;5026393;28;20397;-71
2022/04/14 06:54:45;;;;;;;43.70;26.55;;;;;;;-145.18;100.00;60484.78;5025385;28;21416;-71
2022/04/14 06:57:11;;;;;;;45.03;24.90;;;;;;;-145.18;100.00;60484.78;5027501;28;20033;-71
2022/04/14 06:59:37;;;;;;;37.10;22.55;;;;;;;-145.18;100.00;60484.78;5022419;28;20091;-71
2022/04/14 07:02:02;;;;;;;34.80;21.38;;;;;;;-145.18;100.00;60484.78;5023659;28;20029;-71
2022/04/14 07:04:28;;;;;;;37.60;23.17;;;;;;;-145.18;100.00;60484.78;5025596;28;20053;-70
2022/04/14 07:06:53;;;;;;;35.92;22.45;;;;;;;-145.18;100.00;60484.78;5026494;28;20042;-71
2022/04/14 07:09:19;;;;;;;34.72;20.85;;;;;;;-145.18;100.00;60484.78;5024694;28;20026;-71
2022/04/14 07:11:44;;;;;;;33.83;21.23;;;;;;;-145.18;100.00;60484.78;5026036;28;20117;-70
2022/04/14 07:14:10;;;;;;;37.97;23.33;;;;;;;-145.18;100.00;60484.78;5023640;28;20021;-70
2022/04/14 07:16:35;;;;;;;31.75;21.83;;;;;;;-145.18;100.00;60484.78;5022989;28;20048;-70
2022/04/14 07:19:00;;;;;;;37.03;23.05;;;;;;;-145.18;100.00;60484.78;5028552;28;20101;-71
2022/04/14 07:21:26;;;;;;;38.22;22.35;;;;;;;-145.18;100.00;60484.78;5028484;28;20033;-70
2022/04/14 07:23:51;;;;;;;35.50;21.90;;;;;;;-145.18;100.00;60484.78;5028486;28;20549;-70
2022/04/14 07:26:17;;;;;;;38.45;24.25;;;;;;;-145.18;100.00;60484.78;5025141;28;20033;-70
2022/04/14 07:28:42;;;;;;;39.25;24.33;;;;;;;-145.18;100.00;60484.78;5023717;28;20072;-70
2022/04/14 07:31:08;;;;;;;48.35;27.40;;;;;;;-145.18;100.00;60484.78;5024144;28;20049;-69
2022/04/14 07:33:34;;;;;;;50.15;29.25;;;;;;;-145.18;100.00;60484.78;5027051;28;20033;-70
2022/04/14 07:35:59;;;;;;;47.63;29.33;;;;;;;-145.18;100.00;60484.78;5034326;28;20021;-70
2022/04/14 07:38:25;;;;;;;39.47;25.45;;;;;;;-145.18;100.00;60484.78;5031748;28;20021;-70
2022/04/14 07:40:50;;;;;;;42.17;26.17;;;;;;;-145.18;100.00;60484.78;5032094;28;20025;-70
2022/04/14 07:43:16;;;;;;;49.03;26.73;;;;;;;-145.18;100.00;60484.78;5022721;28;20112;-70
2022/04/14 07:45:42;;;;;;;46.83;27.63;;;;;;;-145.18;100.00;60484.78;5026453;28;20033;-70
2022/04/14 07:48:09;;;;;;;48.30;28.52;;;;;;;-145.18;100.00;60484.78;5032979;28;20393;-70
2022/04/14 07:50:34;;;;;;;48.55;29.30;;;;;;;-145.18;100.00;60484.78;5033421;28;20444;-70
2022/04/14 07:52:59;;;;;;;48.42;28.38;;;;;;;-145.18;100.00;60484.78;5031952;28;20029;-70
2022/04/14 07:55:27;;;;;;;50.38;28.77;;;;;;;-145.18;100.00;60484.78;5031685;28;20021;-70
2022/04/14 07:57:56;;;;;;;50.27;27.97;;;;;;;-145.18;100.00;60484.78;5029886;28;20630;-69
2022/04/14 08:00:23;;;;;;;49.33;27.23;;;;;;;-145.18;100.00;60484.78;5029678;28;20025;-69
2022/04/14 08:03:01;;;;;;;58.30;31.27;;;;;;;-145.18;100.00;60484.78;5030383;28;20580;-69
2022/04/14 08:05:33;;;;;;;54.50;31.70;;;;;;;-145.18;100.00;60484.78;5032151;28;20169;-69
2022/04/14 08:08:00;;;;;;;59.13;32.73;;;;;;;-145.18;100.00;60484.78;5033573;28;20025;-70
2022/04/14 08:10:25;;;;;;;54.77;30.40;;;;;;;-145.18;100.00;60484.78;5029591;28;20477;-70
2022/04/14 08:12:51;;;;;;;56.60;33.73;;;;;;;-145.18;100.00;60484.78;5031286;28;20059;-69
2022/04/14 08:15:16;;;;;;;53.90;31.55;;;;;;;-145.18;100.00;60484.78;5024057;28;20038;-70
2022/04/14 08:17:43;;;;;;;45.30;29.20;;;;;;;-145.18;100.00;60484.78;5011224;28;20060;-70
2022/04/14 08:20:11;;;;;;;52.88;32.30;;;;;;;-145.18;100.00;60484.78;5030773;28;20030;-70
2022/04/14 08:23:03;;;;;;;49.40;30.90;;;;;;;-145.18;100.00;60484.78;5030303;28;20470;-70
2022/04/14 08:25:33;;;;;;;48.30;28.90;;;;;;;-145.18;100.00;60484.78;5022543;28;20041;-71
2022/04/14 08:28:00;;;;;;;43.03;27.15;;;;;;;-145.18;100.00;60484.78;5029714;28;20057;-71
2022/04/14 08:30:26;;;;;;;41.50;26.38;;;;;;;-145.18;100.00;60484.78;5024820;28;20078;-71
2022/04/14 08:32:54;;;;;;;39.72;24.20;;;;;;;-145.18;100.00;60484.78;5008872;28;20033;-71
2022/04/14 08:35:20;;;;;;;37.15;24.60;;;;;;;-145.18;100.00;60484.78;5026790;28;20033;-71
2022/04/14 08:37:47;;;;;;;36.22;23.10;;;;;;;-145.18;100.00;60484.78;5025533;28;20036;-71
2022/04/14 08:40:15;;;;;;;34.80;23.17;;;;;;;-145.18;100.00;60484.78;5023983;28;21595;-71
2022/04/14 08:42:43;;;;;;;40.15;24.08;;;;;;;-145.18;100.00;60484.78;5025865;28;20390;-71
2022/04/14 08:45:15;;;;;;;38.10;23.48;;;;;;;-145.18;100.00;60484.78;5018268;28;20104;-71
2022/04/14 08:47:41;;;;;;;36.58;23.98;;;;;;;-145.18;100.00;60484.78;5021228;28;20192;-71
2022/04/14 08:50:14;;;;;;;41.42;24.95;;;;;;;-145.18;100.00;60484.78;5020540;28;20128;-71
2022/04/14 08:52:40;;;;;;;34.22;24.17;;;;;;;-145.18;100.00;60484.78;5014927;28;20033;-71
2022/04/14 08:55:08;;;;;;;37.58;23.70;;;;;;;-145.18;100.00;60484.78;5010429;28;20420;-71
2022/04/14 08:57:38;;;;;;;34.97;21.58;;;;;;;-145.18;100.00;60484.78;5015878;28;20065;-72
2022/04/14 09:00:08;;;;;;;32.47;20.48;;;;;;;-145.18;100.00;60484.78;5014710;28;20401;-71
2022/04/14 09:02:34;;;;;;;34.58;21.40;;;;;;;-145.18;100.00;60484.78;5006160;28;22337;-71
2022/04/14 09:05:00;;;;;;;33.60;22.05;;;;;;;-145.18;100.00;60484.78;5015984;28;20037;-71
2022/04/14 09:07:26;;;;;;;30.70;21.75;;;;;;;-145.18;100.00;60484.78;5018694;28;20117;-72
2022/04/14 09:09:53;;;;;;;32.88;21.60;;;;;;;-145.18;100.00;60484.78;5018684;28;20112;-71
2022/04/14 09:12:18;;;;;;;32.20;21.23;;;;;;;-145.18;100.00;60484.78;5022149;28;20029;-71
2022/04/14 09:14:44;;;;;;;30.75;21.10;;;;;;;-145.18;100.00;60484.78;5019235;28;20037;-72
2022/04/14 09:17:09;;;;;;;33.17;20.42;;;;;;;-145.18;100.00;60484.78;5014051;28;20212;-72
2022/04/14 09:19:37;;;;;;;32.42;21.23;;;;;;;-145.18;100.00;60484.78;5019152;28;20504;-71
2022/04/14 09:22:13;;;;;;;32.10;21.70;;;;;;;-145.18;100.00;60484.78;5020217;28;20416;-71
2022/04/14 09:24:47;;;;;;;32.28;20.52;;;;;;;-145.18;100.00;60484.78;5019109;28;20033;-70
2022/04/14 09:27:33;;;;;;;32.13;21.08;;;;;;;-145.18;100.00;60484.78;5015986;28;20456;-71
2022/04/14 09:30:00;;;;;;;30.95;20.15;;;;;;;-145.18;100.00;60484.78;5023830;28;20036;-71
2022/04/14 09:32:45;;;;;;;30.33;20.73;;;;;;;-145.18;100.00;60484.78;5015872;28;20486;-71
2022/04/14 09:35:21;;;;;;;31.60;20.73;;;;;;;-145.18;100.00;60484.78;5017284;28;20048;-71
2022/04/14 09:38:00;;;;;;;28.08;18.65;;;;;;;-145.18;100.00;60484.78;5012184;28;20025;-71
2022/04/14 09:40:30;;;;;;;30.00;19.90;;;;;;;-145.18;100.00;60484.78;5007035;28;20083;-71
2022/04/14 09:42:56;;;;;;;29.42;19.65;;;;;;;-145.18;100.00;60484.78;5008229;28;20033;-71
2022/04/14 09:45:26;;;;;;;27.17;18.75;;;;;;;-145.18;100.00;60484.78;5007346;28;20060;-71
2022/04/14 09:47:53;;;;;;;30.38;19.90;;;;;;;-145.18;100.00;60484.78;5015026;28;20027;-71
2022/04/14 09:50:26;;;;;;;31.88;20.75;;;;;;;-145.18;100.00;60484.78;5021897;28;20036;-70
2022/04/14 09:53:12;;;;;;;28.90;18.17;;;;;;;-145.18;100.00;60484.78;5025090;28;20033;-70
2022/04/14 09:55:40;;;;;;;28.92;18.60;;;;;;;-145.18;100.00;60484.78;5011093;28;20045;-71
2022/04/14 09:58:19;;;;;;;33.72;20.13;;;;;;;-145.18;100.00;60484.78;5018366;28;20243;-71
2022/04/14 10:00:47;;;;;;;31.48;21.13;;;;;;;-145.18;100.00;60484.78;5010583;28;20029;-70
2022/04/14 10:03:14;;;;;;;30.92;21.15;;;;;;;-145.18;100.00;60484.78;5015449;28;20047;-70
2022/04/14 10:05:41;;;;;;;30.23;20.33;;;;;;;-145.18;100.00;60484.78;5015520;28;20454;-69
2022/04/14 10:08:07;;;;;;;30.25;19.98;;;;;;;-145.18;100.00;60484.78;5017840;28;20029;-69
2022/04/14 10:10:34;;;;;;;28.45;19.70;;;;;;;-145.18;100.00;60484.78;5017765;28;20030;-70
2022/04/14 10:13:07;;;;;;;30.30;19.77;;;;;;;-145.18;100.00;60484.78;5019420;28;20931;-69
2022/04/14 10:15:35;;;;;;;26.85;17.83;;;;;;;-145.18;100.00;60484.78;5017856;28;20025;-70
2022/04/14 10:18:14;;;;;;;24.00;16.45;;;;;;;-145.18;100.00;60484.78;5017873;28;20033;-70
2022/04/14 10:20:43;;;;;;;26.25;17.27;;;;;;;-145.18;100.00;60484.78;5021369;28;20021;-71
2022/04/14 10:23:11;;;;;;;29.55;18.10;;;;;;;-145.18;100.00;60484.78;5017170;28;20099;-70
2022/04/14 10:25:37;;;;;;;24.63;16.63;;;;;;;-145.18;100.00;60484.78;5019322;28;20030;-69
2022/04/14 10:28:05;;;;;;;22.70;16.17;;;;;;;-145.18;100.00;60484.78;5018445;28;20539;-69
2022/04/14 10:30:31;;;;;;;23.38;15.98;;;;;;;-145.18;100.00;60484.78;5015656;28;20513;-69
2022/04/14 10:32:57;;;;;;;26.27;16.73;;;;;;;-145.18;100.00;60484.78;5019692;28;20021;-68
2022/04/14 10:35:27;;;;;;;21.52;15.45;;;;;;;-145.18;100.00;60484.78;5016280;28;20061;-69
2022/04/14 10:38:08;;;;;;;24.92;16.38;;;;;;;-145.18;100.00;60484.78;5012557;28;20128;-70
2022/04/14 10:40:35;;;;;;;22.17;14.15;;;;;;;-145.18;100.00;60484.78;5019648;28;20069;-70
2022/04/14 10:43:05;;;;;;;20.60;13.63;;;;;;;-145.18;100.00;60484.78;5019015;28;20037;-69
2022/04/14 10:45:47;;;;;;;21.95;15.40;;;;;;;-145.18;100.00;60484.78;5016991;28;20045;-69
2022/04/14 10:48:45;;;;;;;22.80;14.82;;;;;;;-145.18;100.00;60484.78;5019396;28;20518;-69
2022/04/14 10:51:13;;;;;;;23.80;14.10;;;;;;;-145.18;100.00;60484.78;5019428;28;20037;-68